Elberon Park, New Jersey
Current Conditions -  °F | °C
As of 3:55 PM on Friday 19 Dec 2014 (Local Time) from KBLM Reporting Station
Clear Clear  
Wind Chill: 28°   Ceiling: Unl
Heat Index: 37°   Visibility: 10mi
Dew Point: 19°   Wind: 17mph
Humidity: 48%   Direction: 310°NW
Pressure: 30.05"   Gusts: 22mph
Location:  40.2647°N, 74.022°W
Report Text: KBLM 192055Z AUTO 31015G19KT 10SM CLR 03/M07 A3005 RMK AO1 52007
Loading
Personal Weather Stations






























Interactive Weather Map New forecast layout! Learn more

10-Day Weather Forecast

Advertisements
Track Severe Weather on mobile